Overview Statistics Trail Chart Weather Telemetry Raw packets
 

This is the latest recevied weather packets stored in our database for station/object N0QWM. If no packets are shown the sender has not sent any weather packets the latest 10 day(s).

<< 30 31 32 33 34 35 36 >>
Time Temp. Humidity Pressure Rain* Wind** Luminosity Snow
1788453672 35.56° C 56% 1022.2 hPa 0 mm - 580 W/m² -
1788453367 36.11° C 56% 1022.4 hPa 0 mm - 614 W/m² -
1788453063 36.11° C 55% 1022.2 hPa 0 mm - 655 W/m² -
1788452759 35.56° C 57% 1022.2 hPa 0 mm - 660 W/m² -
1788452455 35° C 58% 1022.3 hPa 0 mm - 650 W/m² -
1788452150 36.67° C 56% 1022.5 hPa 0 mm - 633 W/m² -
1788451846 35.56° C 56% 1022.5 hPa 0 mm - 650 W/m² -
1788451544 35° C 59% 1022.6 hPa 0 mm - 674 W/m² -
1788451239 34.44° C 60% 1022.5 hPa 0 mm - 680 W/m² -
1788450938 33.89° C 61% 1022.6 hPa 0 mm - 656 W/m² -
1788450634 33.89° C 61% 1022.7 hPa 0 mm - 602 W/m² -
1788450330 35° C 58% 1022.9 hPa 0 mm - 555 W/m² -
1788450026 34.44° C 60% 1022.8 hPa 0 mm - 685 W/m² -
1788449721 34.44° C 60% 1022.8 hPa 0 mm - 626 W/m² -
1788449417 34.44° C 60% 1022.8 hPa 0 mm - 695 W/m² -
1788449112 34.44° C 59% 1022.7 hPa 0 mm - 699 W/m² -
1788448809 35° C 58% 1022.9 hPa 0 mm - 691 W/m² -
1788448508 34.44° C 61% 1022.6 hPa 0 mm - 681 W/m² -
1788448203 33.33° C 64% 1022.7 hPa 0 mm - 731 W/m² -
1788447897 33.33° C 64% 1022.7 hPa 0 mm - 700 W/m² -
1788447592 33.33° C 63% 1022.6 hPa 0 mm - 641 W/m² -
1788447287 32.78° C 67% 1022.6 hPa 0 mm - 558 W/m² -
1788446982 33.89° C 65% 1022.4 hPa 0 mm - 541 W/m² -
1788446681 33.33° C 64% 1022.6 hPa 0 mm - 553 W/m² -
1788446377 32.78° C 67% 1022.8 hPa 0 mm - 543 W/m² -

* Rain latest hour (hover to see other rain measurements)
** Current wind speed in m/s (hover to see current wind gust speed)